sensor_id;sensor_type;location;lat;lon;timestamp;P1;durP1;ratioP1;P2;durP2;ratioP2
11078;SDS011;5592;49.234;7.268;2022-09-16T00:02:19;16.77;;;7.50;;
11078;SDS011;5592;49.234;7.268;2022-09-16T00:04:45;11.83;;;7.10;;
11078;SDS011;5592;49.234;7.268;2022-09-16T00:07:10;12.10;;;7.00;;
11078;SDS011;5592;49.234;7.268;2022-09-16T00:09:36;11.33;;;7.07;;
11078;SDS011;5592;49.234;7.268;2022-09-16T00:12:03;15.43;;;7.80;;
11078;SDS011;5592;49.234;7.268;2022-09-16T00:14:29;9.17;;;7.93;;
11078;SDS011;5592;49.234;7.268;2022-09-16T00:16:55;9.73;;;7.87;;
11078;SDS011;5592;49.234;7.268;2022-09-16T00:19:21;13.40;;;8.27;;
11078;SDS011;5592;49.234;7.268;2022-09-16T00:21:47;11.20;;;7.67;;
11078;SDS011;5592;49.234;7.268;2022-09-16T00:24:13;16.67;;;7.53;;
11078;SDS011;5592;49.234;7.268;2022-09-16T00:26:40;9.60;;;7.33;;
11078;SDS011;5592;49.234;7.268;2022-09-16T00:29:07;11.13;;;7.03;;
11078;SDS011;5592;49.234;7.268;2022-09-16T00:31:33;10.10;;;7.47;;
11078;SDS011;5592;49.234;7.268;2022-09-16T00:33:59;10.90;;;7.50;;
11078;SDS011;5592;49.234;7.268;2022-09-16T00:36:24;14.20;;;7.80;;
11078;SDS011;5592;49.234;7.268;2022-09-16T00:38:53;12.33;;;7.70;;
11078;SDS011;5592;49.234;7.268;2022-09-16T00:41:21;11.60;;;8.20;;
11078;SDS011;5592;49.234;7.268;2022-09-16T00:43:58;10.33;;;7.70;;
11078;SDS011;5592;49.234;7.268;2022-09-16T00:49:02;19.57;;;7.57;;
11078;SDS011;5592;49.234;7.268;2022-09-16T00:51:33;14.97;;;7.20;;
11078;SDS011;5592;49.234;7.268;2022-09-16T00:53:59;9.80;;;6.40;;
11078;SDS011;5592;49.234;7.268;2022-09-16T00:56:29;9.00;;;7.70;;
11078;SDS011;5592;49.234;7.268;2022-09-16T01:01:30;12.67;;;7.70;;
11078;SDS011;5592;49.234;7.268;2022-09-16T01:03:58;12.17;;;6.90;;
11078;SDS011;5592;49.234;7.268;2022-09-16T01:06:37;10.80;;;7.87;;
11078;SDS011;5592;49.234;7.268;2022-09-16T01:09:04;16.03;;;7.87;;
11078;SDS011;5592;49.234;7.268;2022-09-16T01:11:30;13.37;;;7.60;;
11078;SDS011;5592;49.234;7.268;2022-09-16T01:13:56;14.40;;;7.97;;
11078;SDS011;5592;49.234;7.268;2022-09-16T01:16:44;10.77;;;6.90;;
11078;SDS011;5592;49.234;7.268;2022-09-16T01:33:39;12.80;;;7.40;;
11078;SDS011;5592;49.234;7.268;2022-09-16T01:36:17;10.93;;;6.47;;
11078;SDS011;5592;49.234;7.268;2022-09-16T01:44:34;9.30;;;6.73;;
11078;SDS011;5592;49.234;7.268;2022-09-16T01:47:11;10.80;;;6.33;;
11078;SDS011;5592;49.234;7.268;2022-09-16T01:49:44;9.50;;;6.77;;
11078;SDS011;5592;49.234;7.268;2022-09-16T01:55:17;14.03;;;6.53;;
11078;SDS011;5592;49.234;7.268;2022-09-16T01:58:09;8.53;;;6.30;;
11078;SDS011;5592;49.234;7.268;2022-09-16T02:00:37;14.03;;;7.20;;
11078;SDS011;5592;49.234;7.268;2022-09-16T02:03:11;12.50;;;7.00;;
11078;SDS011;5592;49.234;7.268;2022-09-16T02:05:46;9.63;;;7.00;;
11078;SDS011;5592;49.234;7.268;2022-09-16T02:08:20;9.10;;;7.00;;
11078;SDS011;5592;49.234;7.268;2022-09-16T02:10:55;11.53;;;7.20;;
11078;SDS011;5592;49.234;7.268;2022-09-16T02:13:31;13.07;;;7.60;;
11078;SDS011;5592;49.234;7.268;2022-09-16T02:16:03;16.87;;;7.40;;
11078;SDS011;5592;49.234;7.268;2022-09-16T02:18:33;10.70;;;6.83;;
11078;SDS011;5592;49.234;7.268;2022-09-16T02:21:02;13.97;;;6.90;;
11078;SDS011;5592;49.234;7.268;2022-09-16T02:23:33;8.03;;;6.77;;
11078;SDS011;5592;49.234;7.268;2022-09-16T02:26:03;12.50;;;7.10;;
11078;SDS011;5592;49.234;7.268;2022-09-16T02:28:31;13.97;;;7.07;;
11078;SDS011;5592;49.234;7.268;2022-09-16T02:31:01;10.00;;;6.93;;
11078;SDS011;5592;49.234;7.268;2022-09-16T02:33:32;9.33;;;7.27;;
11078;SDS011;5592;49.234;7.268;2022-09-16T02:36:03;9.00;;;6.87;;
11078;SDS011;5592;49.234;7.268;2022-09-16T02:38:40;15.57;;;7.03;;
11078;SDS011;5592;49.234;7.268;2022-09-16T02:41:07;13.80;;;7.07;;
11078;SDS011;5592;49.234;7.268;2022-09-16T02:43:38;8.20;;;7.27;;
11078;SDS011;5592;49.234;7.268;2022-09-16T02:53:42;12.43;;;7.37;;
11078;SDS011;5592;49.234;7.268;2022-09-16T02:56:13;10.03;;;7.73;;
11078;SDS011;5592;49.234;7.268;2022-09-16T02:58:49;12.07;;;7.10;;
11078;SDS011;5592;49.234;7.268;2022-09-16T03:01:15;10.90;;;7.00;;
11078;SDS011;5592;49.234;7.268;2022-09-16T03:03:43;10.40;;;7.30;;
11078;SDS011;5592;49.234;7.268;2022-09-16T03:08:34;9.93;;;6.80;;
11078;SDS011;5592;49.234;7.268;2022-09-16T03:13:52;9.50;;;6.63;;
11078;SDS011;5592;49.234;7.268;2022-09-16T03:16:29;8.77;;;6.50;;
11078;SDS011;5592;49.234;7.268;2022-09-16T03:19:20;7.67;;;6.87;;
11078;SDS011;5592;49.234;7.268;2022-09-16T03:22:33;10.73;;;6.90;;
11078;SDS011;5592;49.234;7.268;2022-09-16T03:25:12;8.10;;;6.47;;
11078;SDS011;5592;49.234;7.268;2022-09-16T03:27:56;11.33;;;6.80;;
11078;SDS011;5592;49.234;7.268;2022-09-16T03:33:29;9.27;;;6.63;;
11078;SDS011;5592;49.234;7.268;2022-09-16T03:36:03;13.60;;;7.77;;
11078;SDS011;5592;49.234;7.268;2022-09-16T03:38:32;12.73;;;6.93;;
11078;SDS011;5592;49.234;7.268;2022-09-16T03:41:03;15.93;;;6.77;;
11078;SDS011;5592;49.234;7.268;2022-09-16T03:43:31;15.73;;;7.63;;
11078;SDS011;5592;49.234;7.268;2022-09-16T03:45:56;8.37;;;6.60;;
11078;SDS011;5592;49.234;7.268;2022-09-16T03:48:22;11.70;;;6.50;;
11078;SDS011;5592;49.234;7.268;2022-09-16T03:50:48;10.83;;;7.10;;
11078;SDS011;5592;49.234;7.268;2022-09-16T03:53:13;7.30;;;6.60;;
11078;SDS011;5592;49.234;7.268;2022-09-16T03:55:39;8.57;;;6.10;;
11078;SDS011;5592;49.234;7.268;2022-09-16T03:58:05;7.30;;;6.47;;
11078;SDS011;5592;49.234;7.268;2022-09-16T04:00:31;12.60;;;6.67;;
11078;SDS011;5592;49.234;7.268;2022-09-16T04:02:57;12.30;;;7.60;;
11078;SDS011;5592;49.234;7.268;2022-09-16T04:05:23;12.23;;;6.63;;
11078;SDS011;5592;49.234;7.268;2022-09-16T04:07:49;7.30;;;6.60;;
11078;SDS011;5592;49.234;7.268;2022-09-16T04:10:15;11.33;;;7.20;;
11078;SDS011;5592;49.234;7.268;2022-09-16T04:12:40;10.67;;;6.43;;
11078;SDS011;5592;49.234;7.268;2022-09-16T04:15:06;12.33;;;6.73;;
11078;SDS011;5592;49.234;7.268;2022-09-16T04:17:32;8.33;;;6.57;;
11078;SDS011;5592;49.234;7.268;2022-09-16T04:19:58;15.77;;;7.43;;
11078;SDS011;5592;49.234;7.268;2022-09-16T04:22:27;12.60;;;7.20;;
11078;SDS011;5592;49.234;7.268;2022-09-16T04:24:56;20.40;;;6.60;;
11078;SDS011;5592;49.234;7.268;2022-09-16T04:27:22;8.00;;;6.27;;
11078;SDS011;5592;49.234;7.268;2022-09-16T04:29:48;9.33;;;6.20;;
11078;SDS011;5592;49.234;7.268;2022-09-16T04:32:14;12.63;;;6.83;;
11078;SDS011;5592;49.234;7.268;2022-09-16T04:34:39;10.23;;;6.40;;
11078;SDS011;5592;49.234;7.268;2022-09-16T04:37:05;8.20;;;6.50;;
11078;SDS011;5592;49.234;7.268;2022-09-16T04:39:31;7.90;;;6.43;;
11078;SDS011;5592;49.234;7.268;2022-09-16T04:41:57;9.00;;;6.03;;
11078;SDS011;5592;49.234;7.268;2022-09-16T04:44:24;10.70;;;6.40;;
11078;SDS011;5592;49.234;7.268;2022-09-16T04:46:51;11.67;;;6.50;;
11078;SDS011;5592;49.234;7.268;2022-09-16T04:49:17;10.77;;;6.67;;
11078;SDS011;5592;49.234;7.268;2022-09-16T04:51:42;12.77;;;6.30;;
11078;SDS011;5592;49.234;7.268;2022-09-16T04:54:08;7.67;;;6.50;;
11078;SDS011;5592;49.234;7.268;2022-09-16T04:56:35;9.50;;;6.40;;
11078;SDS011;5592;49.234;7.268;2022-09-16T04:59:02;14.50;;;6.93;;
11078;SDS011;5592;49.234;7.268;2022-09-16T05:01:31;11.43;;;6.50;;
11078;SDS011;5592;49.234;7.268;2022-09-16T05:04:02;10.27;;;6.80;;
11078;SDS011;5592;49.234;7.268;2022-09-16T05:06:33;8.80;;;6.60;;
11078;SDS011;5592;49.234;7.268;2022-09-16T05:09:00;10.07;;;6.37;;
11078;SDS011;5592;49.234;7.268;2022-09-16T05:11:28;11.60;;;6.57;;
11078;SDS011;5592;49.234;7.268;2022-09-16T05:14:02;10.90;;;7.70;;
11078;SDS011;5592;49.234;7.268;2022-09-16T05:16:29;14.90;;;6.97;;
11078;SDS011;5592;49.234;7.268;2022-09-16T05:18:56;11.37;;;7.33;;
11078;SDS011;5592;49.234;7.268;2022-09-16T05:21:23;9.87;;;6.43;;
11078;SDS011;5592;49.234;7.268;2022-09-16T05:23:49;27.53;;;6.87;;
11078;SDS011;5592;49.234;7.268;2022-09-16T05:26:19;8.63;;;7.00;;
11078;SDS011;5592;49.234;7.268;2022-09-16T05:28:49;11.53;;;6.63;;
11078;SDS011;5592;49.234;7.268;2022-09-16T05:31:25;13.77;;;7.97;;
11078;SDS011;5592;49.234;7.268;2022-09-16T05:34:02;13.50;;;6.67;;
11078;SDS011;5592;49.234;7.268;2022-09-16T05:36:37;10.20;;;7.33;;
11078;SDS011;5592;49.234;7.268;2022-09-16T05:39:07;11.80;;;7.03;;
11078;SDS011;5592;49.234;7.268;2022-09-16T05:41:37;10.40;;;6.70;;
11078;SDS011;5592;49.234;7.268;2022-09-16T05:44:03;7.47;;;6.50;;
11078;SDS011;5592;49.234;7.268;2022-09-16T05:46:31;9.67;;;6.70;;
11078;SDS011;5592;49.234;7.268;2022-09-16T05:48:59;10.33;;;7.00;;
11078;SDS011;5592;49.234;7.268;2022-09-16T05:51:26;9.70;;;6.83;;
11078;SDS011;5592;49.234;7.268;2022-09-16T05:53:52;9.73;;;7.27;;
11078;SDS011;5592;49.234;7.268;2022-09-16T05:56:24;8.07;;;6.20;;
11078;SDS011;5592;49.234;7.268;2022-09-16T05:58:52;12.33;;;7.00;;
11078;SDS011;5592;49.234;7.268;2022-09-16T06:01:19;11.77;;;7.20;;
11078;SDS011;5592;49.234;7.268;2022-09-16T06:03:47;8.47;;;6.00;;
11078;SDS011;5592;49.234;7.268;2022-09-16T06:09:12;9.37;;;6.30;;
11078;SDS011;5592;49.234;7.268;2022-09-16T06:11:48;9.27;;;6.30;;
11078;SDS011;5592;49.234;7.268;2022-09-16T06:14:15;8.47;;;4.80;;
11078;SDS011;5592;49.234;7.268;2022-09-16T06:16:42;6.10;;;4.43;;
11078;SDS011;5592;49.234;7.268;2022-09-16T06:19:12;9.40;;;4.40;;
11078;SDS011;5592;49.234;7.268;2022-09-16T06:21:40;5.33;;;3.93;;
11078;SDS011;5592;49.234;7.268;2022-09-16T06:24:07;10.60;;;4.23;;
11078;SDS011;5592;49.234;7.268;2022-09-16T06:26:34;4.60;;;3.80;;
11078;SDS011;5592;49.234;7.268;2022-09-16T06:29:01;8.60;;;3.40;;
11078;SDS011;5592;49.234;7.268;2022-09-16T06:31:27;9.63;;;3.70;;
11078;SDS011;5592;49.234;7.268;2022-09-16T06:33:53;9.73;;;4.40;;
11078;SDS011;5592;49.234;7.268;2022-09-16T06:38:45;6.17;;;4.20;;
11078;SDS011;5592;49.234;7.268;2022-09-16T06:41:15;8.83;;;4.50;;
11078;SDS011;5592;49.234;7.268;2022-09-16T06:43:42;4.30;;;3.27;;
11078;SDS011;5592;49.234;7.268;2022-09-16T06:46:11;9.43;;;4.13;;
11078;SDS011;5592;49.234;7.268;2022-09-16T06:48:40;6.80;;;3.90;;
11078;SDS011;5592;49.234;7.268;2022-09-16T06:51:15;4.70;;;2.67;;
11078;SDS011;5592;49.234;7.268;2022-09-16T06:53:42;4.40;;;2.70;;
11078;SDS011;5592;49.234;7.268;2022-09-16T06:56:09;5.27;;;3.37;;
11078;SDS011;5592;49.234;7.268;2022-09-16T06:58:37;4.63;;;3.20;;
11078;SDS011;5592;49.234;7.268;2022-09-16T07:01:12;6.13;;;3.03;;
11078;SDS011;5592;49.234;7.268;2022-09-16T07:03:43;6.50;;;3.10;;
11078;SDS011;5592;49.234;7.268;2022-09-16T07:06:13;6.17;;;2.67;;
11078;SDS011;5592;49.234;7.268;2022-09-16T07:08:40;6.60;;;2.33;;
11078;SDS011;5592;49.234;7.268;2022-09-16T07:11:13;5.20;;;2.50;;
11078;SDS011;5592;49.234;7.268;2022-09-16T07:13:43;4.20;;;2.63;;
11078;SDS011;5592;49.234;7.268;2022-09-16T07:16:11;4.23;;;2.00;;
11078;SDS011;5592;49.234;7.268;2022-09-16T07:18:51;10.73;;;2.30;;
11078;SDS011;5592;49.234;7.268;2022-09-16T07:21:19;3.67;;;1.73;;
11078;SDS011;5592;49.234;7.268;2022-09-16T07:23:55;6.87;;;2.50;;
11078;SDS011;5592;49.234;7.268;2022-09-16T07:26:24;8.23;;;1.90;;
11078;SDS011;5592;49.234;7.268;2022-09-16T07:28:51;5.77;;;1.73;;
11078;SDS011;5592;49.234;7.268;2022-09-16T07:31:19;6.03;;;1.90;;
11078;SDS011;5592;49.234;7.268;2022-09-16T07:33:48;5.37;;;1.97;;
11078;SDS011;5592;49.234;7.268;2022-09-16T07:36:16;8.13;;;1.80;;
11078;SDS011;5592;49.234;7.268;2022-09-16T07:38:44;5.70;;;2.27;;
11078;SDS011;5592;49.234;7.268;2022-09-16T07:41:14;4.90;;;1.60;;
11078;SDS011;5592;49.234;7.268;2022-09-16T07:43:46;4.47;;;2.00;;
11078;SDS011;5592;49.234;7.268;2022-09-16T07:46:12;3.70;;;1.70;;
11078;SDS011;5592;49.234;7.268;2022-09-16T07:48:40;10.13;;;1.60;;
11078;SDS011;5592;49.234;7.268;2022-09-16T07:51:08;2.70;;;1.40;;
11078;SDS011;5592;49.234;7.268;2022-09-16T07:53:36;4.30;;;1.67;;
11078;SDS011;5592;49.234;7.268;2022-09-16T07:58:29;4.50;;;1.40;;
11078;SDS011;5592;49.234;7.268;2022-09-16T08:00:55;6.70;;;1.60;;
11078;SDS011;5592;49.234;7.268;2022-09-16T08:03:21;3.77;;;1.67;;
11078;SDS011;5592;49.234;7.268;2022-09-16T08:05:46;4.53;;;1.40;;
11078;SDS011;5592;49.234;7.268;2022-09-16T08:08:16;3.47;;;1.30;;
11078;SDS011;5592;49.234;7.268;2022-09-16T08:10:42;2.30;;;1.20;;
11078;SDS011;5592;49.234;7.268;2022-09-16T08:13:16;5.33;;;1.27;;
11078;SDS011;5592;49.234;7.268;2022-09-16T08:15:41;2.30;;;1.20;;
11078;SDS011;5592;49.234;7.268;2022-09-16T08:18:09;2.80;;;1.63;;
11078;SDS011;5592;49.234;7.268;2022-09-16T08:20:36;3.23;;;1.23;;
11078;SDS011;5592;49.234;7.268;2022-09-16T08:23:02;5.13;;;1.60;;
11078;SDS011;5592;49.234;7.268;2022-09-16T08:25:28;3.43;;;1.60;;
11078;SDS011;5592;49.234;7.268;2022-09-16T08:27:54;4.03;;;1.67;;
11078;SDS011;5592;49.234;7.268;2022-09-16T08:30:41;6.00;;;1.47;;
11078;SDS011;5592;49.234;7.268;2022-09-16T08:33:08;6.87;;;1.67;;
11078;SDS011;5592;49.234;7.268;2022-09-16T08:35:34;4.90;;;1.70;;
11078;SDS011;5592;49.234;7.268;2022-09-16T08:38:00;5.17;;;1.47;;
11078;SDS011;5592;49.234;7.268;2022-09-16T08:40:26;4.20;;;1.10;;
11078;SDS011;5592;49.234;7.268;2022-09-16T08:46:06;1.90;;;1.00;;
11078;SDS011;5592;49.234;7.268;2022-09-16T08:51:22;5.33;;;1.43;;
11078;SDS011;5592;49.234;7.268;2022-09-16T08:56:26;3.17;;;1.50;;
11078;SDS011;5592;49.234;7.268;2022-09-16T08:58:59;3.70;;;1.70;;
11078;SDS011;5592;49.234;7.268;2022-09-16T09:04:11;2.00;;;1.10;;
11078;SDS011;5592;49.234;7.268;2022-09-16T09:06:44;4.83;;;1.10;;
11078;SDS011;5592;49.234;7.268;2022-09-16T09:12:05;4.90;;;1.40;;
11078;SDS011;5592;49.234;7.268;2022-09-16T09:25:57;4.37;;;1.50;;
11078;SDS011;5592;49.234;7.268;2022-09-16T09:37:04;4.37;;;1.40;;
11078;SDS011;5592;49.234;7.268;2022-09-16T09:39:59;1.57;;;1.10;;
11078;SDS011;5592;49.234;7.268;2022-09-16T09:42:51;6.47;;;1.47;;
11078;SDS011;5592;49.234;7.268;2022-09-16T09:45:30;4.63;;;1.40;;
11078;SDS011;5592;49.234;7.268;2022-09-16T09:48:04;2.10;;;1.20;;
11078;SDS011;5592;49.234;7.268;2022-09-16T09:50:54;3.30;;;1.50;;
11078;SDS011;5592;49.234;7.268;2022-09-16T09:53:25;2.70;;;1.43;;
11078;SDS011;5592;49.234;7.268;2022-09-16T10:01:58;6.87;;;1.63;;
11078;SDS011;5592;49.234;7.268;2022-09-16T10:04:28;2.10;;;1.10;;
11078;SDS011;5592;49.234;7.268;2022-09-16T10:07:02;3.40;;;1.20;;
11078;SDS011;5592;49.234;7.268;2022-09-16T10:09:28;7.07;;;1.40;;
11078;SDS011;5592;49.234;7.268;2022-09-16T10:11:54;8.07;;;1.47;;
11078;SDS011;5592;49.234;7.268;2022-09-16T10:14:30;3.87;;;1.27;;
11078;SDS011;5592;49.234;7.268;2022-09-16T10:17:03;3.70;;;1.07;;
11078;SDS011;5592;49.234;7.268;2022-09-16T10:19:39;4.33;;;1.30;;
11078;SDS011;5592;49.234;7.268;2022-09-16T10:22:23;5.67;;;1.57;;
11078;SDS011;5592;49.234;7.268;2022-09-16T10:24:58;3.73;;;1.53;;
11078;SDS011;5592;49.234;7.268;2022-09-16T10:27:32;4.40;;;1.73;;
11078;SDS011;5592;49.234;7.268;2022-09-16T10:32:28;3.50;;;1.73;;
11078;SDS011;5592;49.234;7.268;2022-09-16T10:34:54;6.53;;;1.57;;
11078;SDS011;5592;49.234;7.268;2022-09-16T10:37:20;3.10;;;1.20;;
11078;SDS011;5592;49.234;7.268;2022-09-16T10:39:51;1.87;;;1.17;;
11078;SDS011;5592;49.234;7.268;2022-09-16T10:42:20;2.70;;;1.07;;
11078;SDS011;5592;49.234;7.268;2022-09-16T10:44:47;4.03;;;1.40;;
11078;SDS011;5592;49.234;7.268;2022-09-16T10:47:24;4.97;;;1.27;;
11078;SDS011;5592;49.234;7.268;2022-09-16T10:49:59;4.00;;;1.40;;
11078;SDS011;5592;49.234;7.268;2022-09-16T10:52:29;3.57;;;1.20;;
11078;SDS011;5592;49.234;7.268;2022-09-16T10:54:56;4.57;;;1.43;;
11078;SDS011;5592;49.234;7.268;2022-09-16T10:57:44;6.70;;;1.60;;
11078;SDS011;5592;49.234;7.268;2022-09-16T11:19:34;2.40;;;1.03;;
11078;SDS011;5592;49.234;7.268;2022-09-16T11:28:15;4.10;;;1.43;;
11078;SDS011;5592;49.234;7.268;2022-09-16T11:31:17;3.97;;;1.60;;
11078;SDS011;5592;49.234;7.268;2022-09-16T11:33:44;4.80;;;1.33;;
11078;SDS011;5592;49.234;7.268;2022-09-16T11:44:09;2.93;;;1.57;;
11078;SDS011;5592;49.234;7.268;2022-09-16T11:54:55;2.30;;;1.57;;
11078;SDS011;5592;49.234;7.268;2022-09-16T11:57:35;2.40;;;1.30;;
11078;SDS011;5592;49.234;7.268;2022-09-16T12:00:04;2.93;;;1.10;;
11078;SDS011;5592;49.234;7.268;2022-09-16T12:02:38;4.63;;;1.63;;
11078;SDS011;5592;49.234;7.268;2022-09-16T12:10:57;2.27;;;1.20;;
11078;SDS011;5592;49.234;7.268;2022-09-16T12:16:07;1.60;;;1.00;;
11078;SDS011;5592;49.234;7.268;2022-09-16T12:18:44;4.93;;;1.10;;
11078;SDS011;5592;49.234;7.268;2022-09-16T12:27:01;4.40;;;1.30;;
11078;SDS011;5592;49.234;7.268;2022-09-16T12:29:43;1.47;;;1.00;;
11078;SDS011;5592;49.234;7.268;2022-09-16T12:32:58;6.43;;;1.37;;
11078;SDS011;5592;49.234;7.268;2022-09-16T12:35:36;6.60;;;1.33;;
11078;SDS011;5592;49.234;7.268;2022-09-16T12:38:16;4.33;;;1.17;;
11078;SDS011;5592;49.234;7.268;2022-09-16T12:54:03;3.90;;;1.50;;
11078;SDS011;5592;49.234;7.268;2022-09-16T12:56:42;2.47;;;1.10;;
11078;SDS011;5592;49.234;7.268;2022-09-16T12:59:30;8.40;;;1.37;;
11078;SDS011;5592;49.234;7.268;2022-09-16T13:02:13;3.07;;;1.27;;
11078;SDS011;5592;49.234;7.268;2022-09-16T13:04:42;3.60;;;1.10;;
11078;SDS011;5592;49.234;7.268;2022-09-16T13:07:19;3.97;;;1.17;;
11078;SDS011;5592;49.234;7.268;2022-09-16T13:09:47;4.00;;;1.60;;
11078;SDS011;5592;49.234;7.268;2022-09-16T13:12:24;3.47;;;1.17;;
11078;SDS011;5592;49.234;7.268;2022-09-16T13:14:55;2.50;;;1.00;;
11078;SDS011;5592;49.234;7.268;2022-09-16T13:17:28;4.43;;;1.27;;
11078;SDS011;5592;49.234;7.268;2022-09-16T13:20:05;2.40;;;0.93;;
11078;SDS011;5592;49.234;7.268;2022-09-16T13:25:07;1.10;;;0.97;;
11078;SDS011;5592;49.234;7.268;2022-09-16T13:27:54;1.53;;;1.00;;
11078;SDS011;5592;49.234;7.268;2022-09-16T13:30:39;2.70;;;0.90;;
11078;SDS011;5592;49.234;7.268;2022-09-16T13:35:38;2.80;;;1.10;;
11078;SDS011;5592;49.234;7.268;2022-09-16T13:40:59;2.40;;;0.93;;
11078;SDS011;5592;49.234;7.268;2022-09-16T13:46:10;4.30;;;1.00;;
11078;SDS011;5592;49.234;7.268;2022-09-16T13:48:48;2.73;;;1.00;;
11078;SDS011;5592;49.234;7.268;2022-09-16T13:51:17;5.73;;;1.03;;
11078;SDS011;5592;49.234;7.268;2022-09-16T13:53:47;2.73;;;1.00;;
11078;SDS011;5592;49.234;7.268;2022-09-16T14:01:52;2.60;;;0.80;;
11078;SDS011;5592;49.234;7.268;2022-09-16T14:12:30;0.70;;;0.70;;
11078;SDS011;5592;49.234;7.268;2022-09-16T14:15:19;0.90;;;0.70;;
11078;SDS011;5592;49.234;7.268;2022-09-16T14:17:47;1.03;;;0.70;;
11078;SDS011;5592;49.234;7.268;2022-09-16T14:20:17;0.90;;;0.60;;
11078;SDS011;5592;49.234;7.268;2022-09-16T14:22:45;2.50;;;0.70;;
11078;SDS011;5592;49.234;7.268;2022-09-16T14:25:31;0.80;;;0.60;;
11078;SDS011;5592;49.234;7.268;2022-09-16T14:28:06;0.90;;;0.70;;
11078;SDS011;5592;49.234;7.268;2022-09-16T14:30:33;0.60;;;0.60;;
11078;SDS011;5592;49.234;7.268;2022-09-16T14:32:59;1.13;;;0.60;;
11078;SDS011;5592;49.234;7.268;2022-09-16T14:35:26;0.80;;;0.70;;
11078;SDS011;5592;49.234;7.268;2022-09-16T14:37:58;2.10;;;0.80;;
11078;SDS011;5592;49.234;7.268;2022-09-16T14:40:27;2.10;;;0.70;;
11078;SDS011;5592;49.234;7.268;2022-09-16T14:45:21;3.20;;;0.90;;
11078;SDS011;5592;49.234;7.268;2022-09-16T14:47:47;0.60;;;0.50;;
11078;SDS011;5592;49.234;7.268;2022-09-16T14:50:18;1.33;;;0.70;;
11078;SDS011;5592;49.234;7.268;2022-09-16T14:52:57;1.07;;;0.70;;
11078;SDS011;5592;49.234;7.268;2022-09-16T14:55:30;2.40;;;0.70;;
11078;SDS011;5592;49.234;7.268;2022-09-16T14:57:58;0.93;;;0.70;;
11078;SDS011;5592;49.234;7.268;2022-09-16T15:00:35;1.80;;;0.70;;
11078;SDS011;5592;49.234;7.268;2022-09-16T15:03:16;0.60;;;0.60;;
11078;SDS011;5592;49.234;7.268;2022-09-16T15:05:54;0.70;;;0.60;;
11078;SDS011;5592;49.234;7.268;2022-09-16T15:11:09;1.53;;;0.70;;
11078;SDS011;5592;49.234;7.268;2022-09-16T15:13:43;2.00;;;0.70;;
11078;SDS011;5592;49.234;7.268;2022-09-16T15:16:10;1.20;;;0.70;;
11078;SDS011;5592;49.234;7.268;2022-09-16T15:18:51;1.77;;;0.60;;
11078;SDS011;5592;49.234;7.268;2022-09-16T15:21:28;0.80;;;0.70;;
11078;SDS011;5592;49.234;7.268;2022-09-16T15:23:58;2.03;;;0.80;;
11078;SDS011;5592;49.234;7.268;2022-09-16T15:26:46;1.33;;;0.80;;
11078;SDS011;5592;49.234;7.268;2022-09-16T15:29:23;1.20;;;0.70;;
11078;SDS011;5592;49.234;7.268;2022-09-16T15:32:17;1.00;;;0.70;;
11078;SDS011;5592;49.234;7.268;2022-09-16T15:34:45;2.13;;;0.83;;
11078;SDS011;5592;49.234;7.268;2022-09-16T15:37:33;1.43;;;1.00;;
11078;SDS011;5592;49.234;7.268;2022-09-16T15:42:43;3.53;;;0.77;;
11078;SDS011;5592;49.234;7.268;2022-09-16T15:45:14;5.53;;;1.10;;
11078;SDS011;5592;49.234;7.268;2022-09-16T15:50:40;1.33;;;0.70;;
11078;SDS011;5592;49.234;7.268;2022-09-16T15:53:15;0.73;;;0.73;;
11078;SDS011;5592;49.234;7.268;2022-09-16T15:56:07;3.00;;;0.80;;
11078;SDS011;5592;49.234;7.268;2022-09-16T15:58:35;3.60;;;0.80;;
11078;SDS011;5592;49.234;7.268;2022-09-16T16:03:58;4.30;;;0.80;;
11078;SDS011;5592;49.234;7.268;2022-09-16T16:11:54;0.97;;;0.90;;
11078;SDS011;5592;49.234;7.268;2022-09-16T16:14:28;1.60;;;0.90;;
11078;SDS011;5592;49.234;7.268;2022-09-16T16:16:56;1.53;;;0.80;;
11078;SDS011;5592;49.234;7.268;2022-09-16T16:19:30;2.60;;;0.77;;
11078;SDS011;5592;49.234;7.268;2022-09-16T16:21:56;1.63;;;1.13;;
11078;SDS011;5592;49.234;7.268;2022-09-16T16:24:22;0.83;;;0.83;;
11078;SDS011;5592;49.234;7.268;2022-09-16T16:26:49;0.90;;;0.90;;
11078;SDS011;5592;49.234;7.268;2022-09-16T16:29:15;1.40;;;0.70;;
11078;SDS011;5592;49.234;7.268;2022-09-16T16:31:56;1.67;;;1.00;;
11078;SDS011;5592;49.234;7.268;2022-09-16T16:34:30;1.47;;;0.90;;
11078;SDS011;5592;49.234;7.268;2022-09-16T16:36:57;1.70;;;0.90;;
11078;SDS011;5592;49.234;7.268;2022-09-16T16:39:22;3.70;;;0.93;;
11078;SDS011;5592;49.234;7.268;2022-09-16T16:41:48;3.00;;;0.87;;
11078;SDS011;5592;49.234;7.268;2022-09-16T16:44:17;0.97;;;0.87;;
11078;SDS011;5592;49.234;7.268;2022-09-16T16:46:43;1.77;;;0.90;;
11078;SDS011;5592;49.234;7.268;2022-09-16T16:49:09;1.93;;;1.30;;
11078;SDS011;5592;49.234;7.268;2022-09-16T16:51:34;1.10;;;0.83;;
11078;SDS011;5592;49.234;7.268;2022-09-16T16:54:00;2.60;;;1.00;;
11078;SDS011;5592;49.234;7.268;2022-09-16T16:56:26;1.77;;;0.87;;
11078;SDS011;5592;49.234;7.268;2022-09-16T16:58:51;2.90;;;1.10;;
11078;SDS011;5592;49.234;7.268;2022-09-16T17:01:18;3.47;;;0.93;;
11078;SDS011;5592;49.234;7.268;2022-09-16T17:03:45;1.50;;;1.13;;
11078;SDS011;5592;49.234;7.268;2022-09-16T17:06:14;1.87;;;1.00;;
11078;SDS011;5592;49.234;7.268;2022-09-16T17:08:44;2.20;;;0.80;;
11078;SDS011;5592;49.234;7.268;2022-09-16T17:13:38;1.30;;;0.93;;
11078;SDS011;5592;49.234;7.268;2022-09-16T17:16:05;1.60;;;1.03;;
11078;SDS011;5592;49.234;7.268;2022-09-16T17:18:35;1.17;;;1.00;;
11078;SDS011;5592;49.234;7.268;2022-09-16T17:21:03;2.50;;;1.00;;
11078;SDS011;5592;49.234;7.268;2022-09-16T17:23:30;4.77;;;1.20;;
11078;SDS011;5592;49.234;7.268;2022-09-16T17:25:56;2.57;;;1.20;;
11078;SDS011;5592;49.234;7.268;2022-09-16T17:28:22;1.50;;;1.10;;
11078;SDS011;5592;49.234;7.268;2022-09-16T17:30:48;0.90;;;0.83;;
11078;SDS011;5592;49.234;7.268;2022-09-16T17:33:13;0.80;;;0.80;;
11078;SDS011;5592;49.234;7.268;2022-09-16T17:35:39;1.20;;;1.00;;
11078;SDS011;5592;49.234;7.268;2022-09-16T17:38:05;1.00;;;0.90;;
11078;SDS011;5592;49.234;7.268;2022-09-16T17:40:31;1.37;;;1.07;;
11078;SDS011;5592;49.234;7.268;2022-09-16T17:42:57;1.30;;;0.90;;
11078;SDS011;5592;49.234;7.268;2022-09-16T17:45:22;1.90;;;1.20;;
11078;SDS011;5592;49.234;7.268;2022-09-16T17:47:48;1.93;;;1.03;;
11078;SDS011;5592;49.234;7.268;2022-09-16T17:50:14;1.80;;;1.10;;
11078;SDS011;5592;49.234;7.268;2022-09-16T17:52:42;3.10;;;0.93;;
11078;SDS011;5592;49.234;7.268;2022-09-16T17:55:08;4.13;;;1.10;;
11078;SDS011;5592;49.234;7.268;2022-09-16T17:57:35;2.53;;;1.20;;
11078;SDS011;5592;49.234;7.268;2022-09-16T18:00:03;1.33;;;1.00;;
11078;SDS011;5592;49.234;7.268;2022-09-16T18:02:29;1.43;;;0.97;;
11078;SDS011;5592;49.234;7.268;2022-09-16T18:04:55;1.20;;;1.10;;
11078;SDS011;5592;49.234;7.268;2022-09-16T18:07:20;1.40;;;1.30;;
11078;SDS011;5592;49.234;7.268;2022-09-16T18:09:47;1.43;;;1.10;;
11078;SDS011;5592;49.234;7.268;2022-09-16T18:12:13;1.33;;;1.23;;
11078;SDS011;5592;49.234;7.268;2022-09-16T18:14:38;0.90;;;0.90;;
11078;SDS011;5592;49.234;7.268;2022-09-16T18:17:04;2.03;;;1.00;;
11078;SDS011;5592;49.234;7.268;2022-09-16T18:19:30;2.60;;;1.10;;
11078;SDS011;5592;49.234;7.268;2022-09-16T18:21:55;1.90;;;1.17;;
11078;SDS011;5592;49.234;7.268;2022-09-16T18:24:21;1.03;;;0.90;;
11078;SDS011;5592;49.234;7.268;2022-09-16T18:26:46;1.50;;;1.40;;
11078;SDS011;5592;49.234;7.268;2022-09-16T18:29:13;1.50;;;1.20;;
11078;SDS011;5592;49.234;7.268;2022-09-16T18:31:39;1.10;;;1.00;;
11078;SDS011;5592;49.234;7.268;2022-09-16T18:34:07;2.70;;;1.10;;
11078;SDS011;5592;49.234;7.268;2022-09-16T18:36:33;2.30;;;1.00;;
11078;SDS011;5592;49.234;7.268;2022-09-16T18:39:01;1.40;;;0.93;;
11078;SDS011;5592;49.234;7.268;2022-09-16T18:41:28;3.10;;;0.93;;
11078;SDS011;5592;49.234;7.268;2022-09-16T18:43:58;1.10;;;0.97;;
11078;SDS011;5592;49.234;7.268;2022-09-16T18:46:29;2.10;;;1.20;;
11078;SDS011;5592;49.234;7.268;2022-09-16T18:48:57;2.17;;;1.10;;